sensor_id;sensor_type;location;lat;lon;timestamp;P1;durP1;ratioP1;P2;durP2;ratioP2
11514;SDS011;5814;41.936;25.556;2022-12-29T00:00:31;29.13;;;26.33;;
11514;SDS011;5814;41.936;25.556;2022-12-29T00:02:58;27.27;;;24.80;;
11514;SDS011;5814;41.936;25.556;2022-12-29T00:05:26;26.53;;;24.53;;
11514;SDS011;5814;41.936;25.556;2022-12-29T00:07:53;27.17;;;24.97;;
11514;SDS011;5814;41.936;25.556;2022-12-29T00:10:20;24.83;;;22.63;;
11514;SDS011;5814;41.936;25.556;2022-12-29T00:12:47;27.13;;;24.57;;
11514;SDS011;5814;41.936;25.556;2022-12-29T00:15:20;27.63;;;25.27;;
11514;SDS011;5814;41.936;25.556;2022-12-29T00:17:53;19.93;;;18.10;;
11514;SDS011;5814;41.936;25.556;2022-12-29T00:20:20;29.07;;;26.07;;
11514;SDS011;5814;41.936;25.556;2022-12-29T00:22:53;24.20;;;21.70;;
11514;SDS011;5814;41.936;25.556;2022-12-29T00:25:25;28.27;;;23.00;;
11514;SDS011;5814;41.936;25.556;2022-12-29T00:27:58;31.63;;;28.97;;
11514;SDS011;5814;41.936;25.556;2022-12-29T00:30:31;28.93;;;26.33;;
11514;SDS011;5814;41.936;25.556;2022-12-29T00:33:10;22.23;;;20.03;;
11514;SDS011;5814;41.936;25.556;2022-12-29T00:35:44;31.37;;;28.47;;
11514;SDS011;5814;41.936;25.556;2022-12-29T00:38:12;25.03;;;22.33;;
11514;SDS011;5814;41.936;25.556;2022-12-29T00:40:45;22.90;;;20.73;;
11514;SDS011;5814;41.936;25.556;2022-12-29T00:43:17;23.80;;;21.40;;
11514;SDS011;5814;41.936;25.556;2022-12-29T00:45:50;20.33;;;18.13;;
11514;SDS011;5814;41.936;25.556;2022-12-29T00:48:17;26.67;;;24.23;;
11514;SDS011;5814;41.936;25.556;2022-12-29T00:50:45;20.27;;;18.37;;
11514;SDS011;5814;41.936;25.556;2022-12-29T00:53:12;20.27;;;18.23;;
11514;SDS011;5814;41.936;25.556;2022-12-29T00:55:39;20.60;;;18.70;;
11514;SDS011;5814;41.936;25.556;2022-12-29T00:58:07;28.07;;;25.57;;
11514;SDS011;5814;41.936;25.556;2022-12-29T01:00:34;20.67;;;18.83;;
11514;SDS011;5814;41.936;25.556;2022-12-29T01:03:01;27.40;;;24.80;;
11514;SDS011;5814;41.936;25.556;2022-12-29T01:05:28;20.57;;;18.47;;
11514;SDS011;5814;41.936;25.556;2022-12-29T01:07:55;19.93;;;18.17;;
11514;SDS011;5814;41.936;25.556;2022-12-29T01:10:23;20.50;;;18.63;;
11514;SDS011;5814;41.936;25.556;2022-12-29T01:12:50;27.30;;;25.13;;
11514;SDS011;5814;41.936;25.556;2022-12-29T01:15:17;20.90;;;18.83;;
11514;SDS011;5814;41.936;25.556;2022-12-29T01:17:44;22.63;;;20.37;;
11514;SDS011;5814;41.936;25.556;2022-12-29T01:20:12;26.83;;;24.43;;
11514;SDS011;5814;41.936;25.556;2022-12-29T01:22:39;21.17;;;19.20;;
11514;SDS011;5814;41.936;25.556;2022-12-29T01:25:06;21.57;;;19.43;;
11514;SDS011;5814;41.936;25.556;2022-12-29T01:27:34;28.37;;;25.90;;
11514;SDS011;5814;41.936;25.556;2022-12-29T01:30:01;28.33;;;25.77;;
11514;SDS011;5814;41.936;25.556;2022-12-29T01:32:28;20.67;;;18.57;;
11514;SDS011;5814;41.936;25.556;2022-12-29T01:34:55;28.57;;;25.80;;
11514;SDS011;5814;41.936;25.556;2022-12-29T01:37:23;27.30;;;24.53;;
11514;SDS011;5814;41.936;25.556;2022-12-29T01:39:50;21.17;;;19.00;;
11514;SDS011;5814;41.936;25.556;2022-12-29T01:42:18;27.20;;;24.60;;
11514;SDS011;5814;41.936;25.556;2022-12-29T01:44:50;26.30;;;23.87;;
11514;SDS011;5814;41.936;25.556;2022-12-29T01:50:04;27.57;;;25.33;;
11514;SDS011;5814;41.936;25.556;2022-12-29T01:52:29;19.90;;;18.03;;
11514;SDS011;5814;41.936;25.556;2022-12-29T01:54:56;20.13;;;18.47;;
11514;SDS011;5814;41.936;25.556;2022-12-29T01:57:25;20.00;;;17.93;;
11514;SDS011;5814;41.936;25.556;2022-12-29T01:59:56;20.00;;;18.00;;
11514;SDS011;5814;41.936;25.556;2022-12-29T02:02:23;19.57;;;17.67;;
11514;SDS011;5814;41.936;25.556;2022-12-29T02:04:49;19.67;;;17.87;;
11514;SDS011;5814;41.936;25.556;2022-12-29T02:07:18;20.07;;;18.03;;
11514;SDS011;5814;41.936;25.556;2022-12-29T02:09:46;26.10;;;23.93;;
11514;SDS011;5814;41.936;25.556;2022-12-29T02:12:14;20.10;;;18.00;;
11514;SDS011;5814;41.936;25.556;2022-12-29T02:14:41;20.00;;;18.00;;
11514;SDS011;5814;41.936;25.556;2022-12-29T02:17:09;19.33;;;17.43;;
11514;SDS011;5814;41.936;25.556;2022-12-29T02:20:03;26.23;;;24.07;;
11514;SDS011;5814;41.936;25.556;2022-12-29T02:22:34;19.93;;;18.17;;
11514;SDS011;5814;41.936;25.556;2022-12-29T02:28:13;19.97;;;18.03;;
11514;SDS011;5814;41.936;25.556;2022-12-29T02:30:45;29.00;;;26.60;;
11514;SDS011;5814;41.936;25.556;2022-12-29T02:33:39;19.77;;;17.80;;
11514;SDS011;5814;41.936;25.556;2022-12-29T02:36:10;18.73;;;17.20;;
11514;SDS011;5814;41.936;25.556;2022-12-29T02:38:40;18.37;;;16.53;;
11514;SDS011;5814;41.936;25.556;2022-12-29T02:44:04;27.27;;;25.07;;
11514;SDS011;5814;41.936;25.556;2022-12-29T02:46:36;19.00;;;17.43;;
11514;SDS011;5814;41.936;25.556;2022-12-29T02:51:54;20.00;;;18.07;;
11514;SDS011;5814;41.936;25.556;2022-12-29T02:54:21;20.67;;;18.70;;
11514;SDS011;5814;41.936;25.556;2022-12-29T02:56:54;28.83;;;26.67;;
11514;SDS011;5814;41.936;25.556;2022-12-29T02:59:21;18.97;;;17.03;;
11514;SDS011;5814;41.936;25.556;2022-12-29T03:02:13;19.50;;;17.60;;
11514;SDS011;5814;41.936;25.556;2022-12-29T03:04:47;28.50;;;26.27;;
11514;SDS011;5814;41.936;25.556;2022-12-29T03:07:13;18.70;;;17.10;;
11514;SDS011;5814;41.936;25.556;2022-12-29T03:09:43;19.23;;;17.30;;
11514;SDS011;5814;41.936;25.556;2022-12-29T03:12:14;19.27;;;17.37;;
11514;SDS011;5814;41.936;25.556;2022-12-29T03:15:07;29.17;;;26.70;;
11514;SDS011;5814;41.936;25.556;2022-12-29T03:20:24;28.87;;;26.50;;
11514;SDS011;5814;41.936;25.556;2022-12-29T03:22:51;19.57;;;17.97;;
11514;SDS011;5814;41.936;25.556;2022-12-29T03:25:22;26.90;;;24.50;;
11514;SDS011;5814;41.936;25.556;2022-12-29T03:27:51;19.00;;;17.27;;
11514;SDS011;5814;41.936;25.556;2022-12-29T03:30:18;17.40;;;15.67;;
11514;SDS011;5814;41.936;25.556;2022-12-29T03:32:46;18.43;;;16.63;;
11514;SDS011;5814;41.936;25.556;2022-12-29T03:35:13;26.53;;;24.33;;
11514;SDS011;5814;41.936;25.556;2022-12-29T03:37:42;26.77;;;24.40;;
11514;SDS011;5814;41.936;25.556;2022-12-29T03:40:08;16.97;;;15.37;;
11514;SDS011;5814;41.936;25.556;2022-12-29T03:42:35;25.17;;;23.10;;
11514;SDS011;5814;41.936;25.556;2022-12-29T03:45:03;22.70;;;20.97;;
11514;SDS011;5814;41.936;25.556;2022-12-29T03:47:30;16.20;;;14.80;;
11514;SDS011;5814;41.936;25.556;2022-12-29T03:49:57;25.67;;;23.43;;
11514;SDS011;5814;41.936;25.556;2022-12-29T03:52:25;18.77;;;16.13;;
11514;SDS011;5814;41.936;25.556;2022-12-29T03:54:52;26.20;;;24.00;;
11514;SDS011;5814;41.936;25.556;2022-12-29T03:57:19;16.73;;;15.40;;
11514;SDS011;5814;41.936;25.556;2022-12-29T03:59:46;25.90;;;23.20;;
11514;SDS011;5814;41.936;25.556;2022-12-29T04:02:13;29.60;;;26.30;;
11514;SDS011;5814;41.936;25.556;2022-12-29T04:04:40;23.83;;;21.30;;
11514;SDS011;5814;41.936;25.556;2022-12-29T04:07:08;34.00;;;30.77;;
11514;SDS011;5814;41.936;25.556;2022-12-29T04:09:35;26.83;;;24.23;;
11514;SDS011;5814;41.936;25.556;2022-12-29T04:12:02;28.27;;;25.67;;
11514;SDS011;5814;41.936;25.556;2022-12-29T04:14:30;23.53;;;21.20;;
11514;SDS011;5814;41.936;25.556;2022-12-29T04:16:57;22.90;;;20.43;;
11514;SDS011;5814;41.936;25.556;2022-12-29T04:19:24;21.63;;;18.50;;
11514;SDS011;5814;41.936;25.556;2022-12-29T04:21:51;30.37;;;27.23;;
11514;SDS011;5814;41.936;25.556;2022-12-29T04:24:18;19.90;;;18.00;;
11514;SDS011;5814;41.936;25.556;2022-12-29T04:26:46;20.53;;;18.57;;
11514;SDS011;5814;41.936;25.556;2022-12-29T04:29:13;34.17;;;30.67;;
11514;SDS011;5814;41.936;25.556;2022-12-29T04:31:40;39.03;;;30.87;;
11514;SDS011;5814;41.936;25.556;2022-12-29T04:34:07;52.03;;;46.00;;
11514;SDS011;5814;41.936;25.556;2022-12-29T04:36:34;35.97;;;32.37;;
11514;SDS011;5814;41.936;25.556;2022-12-29T04:39:02;20.90;;;18.60;;
11514;SDS011;5814;41.936;25.556;2022-12-29T04:41:29;20.27;;;18.37;;
11514;SDS011;5814;41.936;25.556;2022-12-29T04:43:56;28.20;;;25.80;;
11514;SDS011;5814;41.936;25.556;2022-12-29T04:46:23;28.37;;;25.80;;
11514;SDS011;5814;41.936;25.556;2022-12-29T04:48:51;18.63;;;16.77;;
11514;SDS011;5814;41.936;25.556;2022-12-29T04:51:18;21.90;;;19.80;;
11514;SDS011;5814;41.936;25.556;2022-12-29T04:53:45;37.47;;;33.67;;
11514;SDS011;5814;41.936;25.556;2022-12-29T04:56:12;22.70;;;20.60;;
11514;SDS011;5814;41.936;25.556;2022-12-29T04:58:39;27.87;;;24.87;;
11514;SDS011;5814;41.936;25.556;2022-12-29T05:01:06;22.57;;;20.47;;
11514;SDS011;5814;41.936;25.556;2022-12-29T05:03:34;33.80;;;30.30;;
11514;SDS011;5814;41.936;25.556;2022-12-29T05:06:01;22.40;;;20.23;;
11514;SDS011;5814;41.936;25.556;2022-12-29T05:08:28;25.00;;;22.63;;
11514;SDS011;5814;41.936;25.556;2022-12-29T05:10:55;34.53;;;30.83;;
11514;SDS011;5814;41.936;25.556;2022-12-29T05:13:22;32.93;;;29.30;;
11514;SDS011;5814;41.936;25.556;2022-12-29T05:15:50;23.20;;;20.80;;
11514;SDS011;5814;41.936;25.556;2022-12-29T05:18:18;22.10;;;20.10;;
11514;SDS011;5814;41.936;25.556;2022-12-29T05:20:45;32.60;;;29.60;;
11514;SDS011;5814;41.936;25.556;2022-12-29T05:23:12;29.37;;;26.47;;
11514;SDS011;5814;41.936;25.556;2022-12-29T05:25:39;28.97;;;26.00;;
11514;SDS011;5814;41.936;25.556;2022-12-29T05:28:06;26.53;;;24.03;;
11514;SDS011;5814;41.936;25.556;2022-12-29T05:30:33;26.37;;;23.80;;
11514;SDS011;5814;41.936;25.556;2022-12-29T05:33:01;34.73;;;31.37;;
11514;SDS011;5814;41.936;25.556;2022-12-29T05:35:28;26.13;;;23.50;;
11514;SDS011;5814;41.936;25.556;2022-12-29T05:37:55;25.93;;;23.20;;
11514;SDS011;5814;41.936;25.556;2022-12-29T05:40:22;25.43;;;22.37;;
11514;SDS011;5814;41.936;25.556;2022-12-29T05:42:49;25.47;;;22.93;;
11514;SDS011;5814;41.936;25.556;2022-12-29T05:45:16;34.20;;;30.80;;
11514;SDS011;5814;41.936;25.556;2022-12-29T05:47:44;28.93;;;25.57;;
11514;SDS011;5814;41.936;25.556;2022-12-29T05:50:11;37.43;;;33.73;;
11514;SDS011;5814;41.936;25.556;2022-12-29T05:52:44;25.73;;;23.23;;
11514;SDS011;5814;41.936;25.556;2022-12-29T05:55:11;34.37;;;28.07;;
11514;SDS011;5814;41.936;25.556;2022-12-29T05:57:38;29.27;;;25.40;;
11514;SDS011;5814;41.936;25.556;2022-12-29T06:00:06;29.20;;;26.00;;
11514;SDS011;5814;41.936;25.556;2022-12-29T06:02:34;26.13;;;23.33;;
11514;SDS011;5814;41.936;25.556;2022-12-29T06:05:01;30.70;;;27.67;;
11514;SDS011;5814;41.936;25.556;2022-12-29T06:07:29;30.57;;;27.27;;
11514;SDS011;5814;41.936;25.556;2022-12-29T06:09:56;30.97;;;27.77;;
11514;SDS011;5814;41.936;25.556;2022-12-29T06:12:23;31.87;;;28.67;;
11514;SDS011;5814;41.936;25.556;2022-12-29T06:14:50;30.17;;;26.97;;
11514;SDS011;5814;41.936;25.556;2022-12-29T06:17:17;27.27;;;24.40;;
11514;SDS011;5814;41.936;25.556;2022-12-29T06:19:44;27.27;;;24.47;;
11514;SDS011;5814;41.936;25.556;2022-12-29T06:22:12;35.20;;;31.87;;
11514;SDS011;5814;41.936;25.556;2022-12-29T06:24:39;27.17;;;24.43;;
11514;SDS011;5814;41.936;25.556;2022-12-29T06:27:06;34.30;;;30.90;;
11514;SDS011;5814;41.936;25.556;2022-12-29T06:29:33;28.20;;;25.57;;
11514;SDS011;5814;41.936;25.556;2022-12-29T06:32:00;36.13;;;30.70;;
11514;SDS011;5814;41.936;25.556;2022-12-29T06:34:27;31.23;;;28.10;;
11514;SDS011;5814;41.936;25.556;2022-12-29T06:36:55;33.17;;;28.67;;
11514;SDS011;5814;41.936;25.556;2022-12-29T06:39:22;37.97;;;33.37;;
11514;SDS011;5814;41.936;25.556;2022-12-29T06:41:51;34.10;;;30.50;;
11514;SDS011;5814;41.936;25.556;2022-12-29T06:44:20;29.07;;;26.07;;
11514;SDS011;5814;41.936;25.556;2022-12-29T06:46:47;29.30;;;26.33;;
11514;SDS011;5814;41.936;25.556;2022-12-29T06:49:14;32.90;;;29.50;;
11514;SDS011;5814;41.936;25.556;2022-12-29T06:51:41;35.10;;;31.30;;
11514;SDS011;5814;41.936;25.556;2022-12-29T06:54:08;42.33;;;37.07;;
11514;SDS011;5814;41.936;25.556;2022-12-29T06:56:36;34.33;;;30.77;;
11514;SDS011;5814;41.936;25.556;2022-12-29T06:59:03;37.00;;;33.20;;
11514;SDS011;5814;41.936;25.556;2022-12-29T07:01:30;33.63;;;30.17;;
11514;SDS011;5814;41.936;25.556;2022-12-29T07:03:57;36.23;;;32.60;;
11514;SDS011;5814;41.936;25.556;2022-12-29T07:06:24;35.80;;;32.30;;
11514;SDS011;5814;41.936;25.556;2022-12-29T07:08:52;28.33;;;25.93;;
11514;SDS011;5814;41.936;25.556;2022-12-29T07:11:19;27.27;;;24.60;;
11514;SDS011;5814;41.936;25.556;2022-12-29T07:13:46;27.57;;;24.37;;
11514;SDS011;5814;41.936;25.556;2022-12-29T07:16:13;27.37;;;24.53;;
11514;SDS011;5814;41.936;25.556;2022-12-29T07:18:40;26.27;;;23.57;;
11514;SDS011;5814;41.936;25.556;2022-12-29T07:21:08;27.43;;;24.07;;
11514;SDS011;5814;41.936;25.556;2022-12-29T07:23:35;26.23;;;23.50;;
11514;SDS011;5814;41.936;25.556;2022-12-29T07:26:03;48.50;;;43.80;;
11514;SDS011;5814;41.936;25.556;2022-12-29T07:28:30;27.60;;;23.40;;
11514;SDS011;5814;41.936;25.556;2022-12-29T07:30:58;23.10;;;20.77;;
11514;SDS011;5814;41.936;25.556;2022-12-29T07:33:24;24.17;;;21.97;;
11514;SDS011;5814;41.936;25.556;2022-12-29T07:35:52;25.30;;;22.70;;
11514;SDS011;5814;41.936;25.556;2022-12-29T07:38:19;26.00;;;23.40;;
11514;SDS011;5814;41.936;25.556;2022-12-29T07:40:46;28.33;;;25.57;;
11514;SDS011;5814;41.936;25.556;2022-12-29T07:43:13;30.80;;;27.57;;
11514;SDS011;5814;41.936;25.556;2022-12-29T07:45:40;33.63;;;29.83;;
11514;SDS011;5814;41.936;25.556;2022-12-29T07:48:07;30.43;;;27.23;;
11514;SDS011;5814;41.936;25.556;2022-12-29T07:50:35;24.17;;;21.87;;
11514;SDS011;5814;41.936;25.556;2022-12-29T07:53:02;26.77;;;23.90;;
11514;SDS011;5814;41.936;25.556;2022-12-29T07:55:29;28.10;;;24.93;;
11514;SDS011;5814;41.936;25.556;2022-12-29T07:57:56;29.03;;;26.13;;
11514;SDS011;5814;41.936;25.556;2022-12-29T08:00:23;28.43;;;25.50;;
11514;SDS011;5814;41.936;25.556;2022-12-29T08:02:51;31.57;;;27.20;;
11514;SDS011;5814;41.936;25.556;2022-12-29T08:05:18;29.50;;;26.50;;
11514;SDS011;5814;41.936;25.556;2022-12-29T08:07:45;31.97;;;28.77;;
11514;SDS011;5814;41.936;25.556;2022-12-29T08:10:13;38.77;;;28.63;;
11514;SDS011;5814;41.936;25.556;2022-12-29T08:12:39;33.23;;;29.80;;
11514;SDS011;5814;41.936;25.556;2022-12-29T08:15:07;30.80;;;27.03;;
11514;SDS011;5814;41.936;25.556;2022-12-29T08:17:35;28.60;;;25.57;;
11514;SDS011;5814;41.936;25.556;2022-12-29T08:20:03;30.00;;;27.10;;
11514;SDS011;5814;41.936;25.556;2022-12-29T08:22:31;32.80;;;28.57;;
11514;SDS011;5814;41.936;25.556;2022-12-29T08:24:58;38.23;;;31.63;;
11514;SDS011;5814;41.936;25.556;2022-12-29T08:27:25;37.03;;;31.10;;
11514;SDS011;5814;41.936;25.556;2022-12-29T08:29:53;33.63;;;28.57;;
11514;SDS011;5814;41.936;25.556;2022-12-29T08:32:20;33.13;;;29.77;;
11514;SDS011;5814;41.936;25.556;2022-12-29T08:34:47;30.27;;;27.27;;
11514;SDS011;5814;41.936;25.556;2022-12-29T08:37:14;28.73;;;25.80;;
11514;SDS011;5814;41.936;25.556;2022-12-29T08:39:41;34.40;;;27.03;;
11514;SDS011;5814;41.936;25.556;2022-12-29T08:42:08;27.40;;;24.77;;
11514;SDS011;5814;41.936;25.556;2022-12-29T08:44:36;30.10;;;27.13;;
11514;SDS011;5814;41.936;25.556;2022-12-29T08:47:03;28.20;;;25.57;;
11514;SDS011;5814;41.936;25.556;2022-12-29T08:49:30;28.33;;;24.80;;
11514;SDS011;5814;41.936;25.556;2022-12-29T08:51:57;23.20;;;21.20;;
11514;SDS011;5814;41.936;25.556;2022-12-29T08:54:24;28.80;;;26.00;;
11514;SDS011;5814;41.936;25.556;2022-12-29T08:56:52;39.07;;;31.33;;
11514;SDS011;5814;41.936;25.556;2022-12-29T08:59:19;41.87;;;25.00;;
11514;SDS011;5814;41.936;25.556;2022-12-29T09:01:46;31.90;;;28.73;;
11514;SDS011;5814;41.936;25.556;2022-12-29T09:04:13;25.27;;;22.77;;
11514;SDS011;5814;41.936;25.556;2022-12-29T09:06:40;31.40;;;26.07;;
11514;SDS011;5814;41.936;25.556;2022-12-29T09:09:08;24.67;;;22.27;;
11514;SDS011;5814;41.936;25.556;2022-12-29T09:11:35;30.20;;;25.50;;
11514;SDS011;5814;41.936;25.556;2022-12-29T09:14:02;44.83;;;28.80;;
11514;SDS011;5814;41.936;25.556;2022-12-29T09:16:29;29.40;;;26.33;;
11514;SDS011;5814;41.936;25.556;2022-12-29T09:18:56;24.67;;;22.20;;
11514;SDS011;5814;41.936;25.556;2022-12-29T09:21:24;23.87;;;21.87;;
11514;SDS011;5814;41.936;25.556;2022-12-29T09:23:51;24.60;;;22.43;;
11514;SDS011;5814;41.936;25.556;2022-12-29T09:26:18;25.50;;;23.40;;
11514;SDS011;5814;41.936;25.556;2022-12-29T09:28:45;24.23;;;22.27;;
11514;SDS011;5814;41.936;25.556;2022-12-29T09:31:12;24.83;;;22.90;;
11514;SDS011;5814;41.936;25.556;2022-12-29T09:33:39;23.67;;;21.77;;
11514;SDS011;5814;41.936;25.556;2022-12-29T09:36:07;25.93;;;23.73;;
11514;SDS011;5814;41.936;25.556;2022-12-29T09:38:34;28.00;;;25.53;;
11514;SDS011;5814;41.936;25.556;2022-12-29T09:41:10;24.43;;;22.43;;
11514;SDS011;5814;41.936;25.556;2022-12-29T09:46:13;22.33;;;20.43;;
11514;SDS011;5814;41.936;25.556;2022-12-29T09:48:39;23.70;;;21.87;;
11514;SDS011;5814;41.936;25.556;2022-12-29T09:51:08;22.73;;;20.93;;
11514;SDS011;5814;41.936;25.556;2022-12-29T09:53:36;22.83;;;21.00;;
11514;SDS011;5814;41.936;25.556;2022-12-29T09:56:04;26.43;;;23.93;;
11514;SDS011;5814;41.936;25.556;2022-12-29T09:58:35;26.17;;;23.83;;
11514;SDS011;5814;41.936;25.556;2022-12-29T10:01:01;23.70;;;21.70;;
11514;SDS011;5814;41.936;25.556;2022-12-29T10:03:52;25.73;;;23.43;;
11514;SDS011;5814;41.936;25.556;2022-12-29T10:06:24;22.43;;;20.73;;
11514;SDS011;5814;41.936;25.556;2022-12-29T10:09:12;23.73;;;21.73;;
11514;SDS011;5814;41.936;25.556;2022-12-29T10:11:49;26.40;;;23.97;;
11514;SDS011;5814;41.936;25.556;2022-12-29T10:14:20;33.13;;;29.93;;
11514;SDS011;5814;41.936;25.556;2022-12-29T10:17:01;26.23;;;23.90;;
11514;SDS011;5814;41.936;25.556;2022-12-29T10:19:51;26.03;;;23.50;;
11514;SDS011;5814;41.936;25.556;2022-12-29T10:25:12;23.60;;;21.60;;
11514;SDS011;5814;41.936;25.556;2022-12-29T10:27:42;24.60;;;22.30;;
11514;SDS011;5814;41.936;25.556;2022-12-29T10:30:11;23.13;;;21.03;;
11514;SDS011;5814;41.936;25.556;2022-12-29T10:32:38;25.00;;;22.80;;
11514;SDS011;5814;41.936;25.556;2022-12-29T10:35:06;27.77;;;23.37;;
11514;SDS011;5814;41.936;25.556;2022-12-29T10:37:40;23.37;;;21.40;;
11514;SDS011;5814;41.936;25.556;2022-12-29T10:40:12;25.00;;;22.60;;
11514;SDS011;5814;41.936;25.556;2022-12-29T10:42:41;27.33;;;24.73;;
11514;SDS011;5814;41.936;25.556;2022-12-29T10:45:11;24.83;;;22.63;;
11514;SDS011;5814;41.936;25.556;2022-12-29T10:47:35;27.87;;;24.77;;
11514;SDS011;5814;41.936;25.556;2022-12-29T10:50:02;25.80;;;23.47;;
11514;SDS011;5814;41.936;25.556;2022-12-29T10:52:29;28.30;;;25.53;;
11514;SDS011;5814;41.936;25.556;2022-12-29T10:54:59;23.47;;;21.37;;
11514;SDS011;5814;41.936;25.556;2022-12-29T10:57:28;25.10;;;22.80;;
11514;SDS011;5814;41.936;25.556;2022-12-29T10:59:54;25.90;;;23.53;;
11514;SDS011;5814;41.936;25.556;2022-12-29T11:05:15;25.13;;;22.97;;
11514;SDS011;5814;41.936;25.556;2022-12-29T11:07:53;25.63;;;23.30;;
11514;SDS011;5814;41.936;25.556;2022-12-29T11:10:28;26.53;;;24.00;;
11514;SDS011;5814;41.936;25.556;2022-12-29T11:12:55;25.43;;;23.03;;
11514;SDS011;5814;41.936;25.556;2022-12-29T11:15:23;27.07;;;24.27;;
11514;SDS011;5814;41.936;25.556;2022-12-29T11:17:51;27.73;;;25.17;;
11514;SDS011;5814;41.936;25.556;2022-12-29T11:22:56;26.60;;;24.20;;
11514;SDS011;5814;41.936;25.556;2022-12-29T11:25:23;29.97;;;26.83;;
11514;SDS011;5814;41.936;25.556;2022-12-29T11:27:55;26.97;;;24.47;;
11514;SDS011;5814;41.936;25.556;2022-12-29T11:30:25;27.53;;;24.83;;
11514;SDS011;5814;41.936;25.556;2022-12-29T11:32:52;28.73;;;25.83;;
11514;SDS011;5814;41.936;25.556;2022-12-29T11:35:31;26.93;;;24.43;;
11514;SDS011;5814;41.936;25.556;2022-12-29T11:38:00;26.13;;;23.40;;
11514;SDS011;5814;41.936;25.556;2022-12-29T11:40:27;25.90;;;23.60;;
11514;SDS011;5814;41.936;25.556;2022-12-29T11:42:55;27.00;;;24.17;;
11514;SDS011;5814;41.936;25.556;2022-12-29T11:45:22;28.60;;;25.43;;
11514;SDS011;5814;41.936;25.556;2022-12-29T11:47:51;25.83;;;23.10;;
11514;SDS011;5814;41.936;25.556;2022-12-29T11:50:18;25.47;;;23.07;;
11514;SDS011;5814;41.936;25.556;2022-12-29T11:52:48;27.80;;;25.20;;
11514;SDS011;5814;41.936;25.556;2022-12-29T11:55:20;25.30;;;22.90;;
11514;SDS011;5814;41.936;25.556;2022-12-29T11:57:46;25.83;;;23.43;;
11514;SDS011;5814;41.936;25.556;2022-12-29T12:00:16;24.63;;;22.30;;
11514;SDS011;5814;41.936;25.556;2022-12-29T12:02:47;24.90;;;22.60;;
11514;SDS011;5814;41.936;25.556;2022-12-29T12:05:17;24.40;;;22.17;;
11514;SDS011;5814;41.936;25.556;2022-12-29T12:08:28;26.60;;;21.30;;
11514;SDS011;5814;41.936;25.556;2022-12-29T12:10:39;23.57;;;21.13;;
11514;SDS011;5814;41.936;25.556;2022-12-29T12:13:08;24.80;;;22.17;;
11514;SDS011;5814;41.936;25.556;2022-12-29T12:15:52;24.70;;;22.17;;
11514;SDS011;5814;41.936;25.556;2022-12-29T12:18:24;24.60;;;21.33;;
11514;SDS011;5814;41.936;25.556;2022-12-29T12:21:06;22.80;;;20.70;;
11514;SDS011;5814;41.936;25.556;2022-12-29T12:23:43;27.93;;;21.30;;
11514;SDS011;5814;41.936;25.556;2022-12-29T12:26:10;26.27;;;22.30;;
11514;SDS011;5814;41.936;25.556;2022-12-29T12:28:44;26.70;;;23.90;;
11514;SDS011;5814;41.936;25.556;2022-12-29T12:31:17;24.80;;;22.30;;
11514;SDS011;5814;41.936;25.556;2022-12-29T12:33:46;25.33;;;23.13;;
11514;SDS011;5814;41.936;25.556;2022-12-29T12:41:52;23.67;;;21.33;;
11514;SDS011;5814;41.936;25.556;2022-12-29T12:44:24;22.93;;;20.70;;
11514;SDS011;5814;41.936;25.556;2022-12-29T12:47:28;22.03;;;19.93;;
11514;SDS011;5814;41.936;25.556;2022-12-29T12:49:45;21.73;;;19.87;;
11514;SDS011;5814;41.936;25.556;2022-12-29T12:54:56;21.53;;;19.73;;
11514;SDS011;5814;41.936;25.556;2022-12-29T13:00:16;24.27;;;21.77;;
11514;SDS011;5814;41.936;25.556;2022-12-29T13:02:49;23.20;;;20.07;;
11514;SDS011;5814;41.936;25.556;2022-12-29T13:08:16;20.37;;;18.57;;
11514;SDS011;5814;41.936;25.556;2022-12-29T13:10:43;20.27;;;18.40;;
11514;SDS011;5814;41.936;25.556;2022-12-29T13:16:02;18.23;;;16.70;;
11514;SDS011;5814;41.936;25.556;2022-12-29T13:18:33;18.07;;;16.57;;
11514;SDS011;5814;41.936;25.556;2022-12-29T13:21:02;16.67;;;15.20;;
11514;SDS011;5814;41.936;25.556;2022-12-29T13:23:40;19.27;;;17.50;;
11514;SDS011;5814;41.936;25.556;2022-12-29T13:26:20;20.93;;;18.93;;
11514;SDS011;5814;41.936;25.556;2022-12-29T13:28:52;22.23;;;20.10;;
11514;SDS011;5814;41.936;25.556;2022-12-29T13:31:24;21.53;;;19.37;;
11514;SDS011;5814;41.936;25.556;2022-12-29T13:33:57;20.17;;;18.13;;
11514;SDS011;5814;41.936;25.556;2022-12-29T13:36:24;20.50;;;18.53;;
11514;SDS011;5814;41.936;25.556;2022-12-29T13:39:02;20.43;;;18.53;;
11514;SDS011;5814;41.936;25.556;2022-12-29T13:41:25;20.67;;;18.77;;
11514;SDS011;5814;41.936;25.556;2022-12-29T13:43:48;20.67;;;18.83;;
11514;SDS011;5814;41.936;25.556;2022-12-29T13:46:21;20.70;;;18.70;;
11514;SDS011;5814;41.936;25.556;2022-12-29T13:48:51;16.50;;;14.97;;
11514;SDS011;5814;41.936;25.556;2022-12-29T13:51:17;17.43;;;15.93;;
11514;SDS011;5814;41.936;25.556;2022-12-29T13:53:52;20.40;;;17.90;;
11514;SDS011;5814;41.936;25.556;2022-12-29T13:56:18;19.07;;;17.13;;
11514;SDS011;5814;41.936;25.556;2022-12-29T13:58:46;22.60;;;18.73;;
11514;SDS011;5814;41.936;25.556;2022-12-29T14:01:32;20.30;;;18.37;;
11514;SDS011;5814;41.936;25.556;2022-12-29T14:04:00;18.30;;;16.47;;
11514;SDS011;5814;41.936;25.556;2022-12-29T14:06:28;18.33;;;15.80;;
11514;SDS011;5814;41.936;25.556;2022-12-29T14:08:57;19.77;;;17.67;;
11514;SDS011;5814;41.936;25.556;2022-12-29T14:11:28;21.90;;;17.13;;
11514;SDS011;5814;41.936;25.556;2022-12-29T14:13:51;18.50;;;16.67;;
11514;SDS011;5814;41.936;25.556;2022-12-29T14:16:24;17.80;;;16.10;;
11514;SDS011;5814;41.936;25.556;2022-12-29T14:18:51;19.50;;;15.03;;
11514;SDS011;5814;41.936;25.556;2022-12-29T14:21:20;18.53;;;16.77;;
11514;SDS011;5814;41.936;25.556;2022-12-29T14:23:46;16.83;;;15.07;;
11514;SDS011;5814;41.936;25.556;2022-12-29T14:26:14;17.20;;;15.60;;
11514;SDS011;5814;41.936;25.556;2022-12-29T14:28:42;15.10;;;13.80;;
11514;SDS011;5814;41.936;25.556;2022-12-29T14:37:03;18.00;;;16.50;;
11514;SDS011;5814;41.936;25.556;2022-12-29T14:39:32;15.00;;;13.73;;
11514;SDS011;5814;41.936;25.556;2022-12-29T14:41:59;30.07;;;26.87;;
11514;SDS011;5814;41.936;25.556;2022-12-29T14:44:26;34.03;;;28.57;;
11514;SDS011;5814;41.936;25.556;2022-12-29T14:47:01;31.87;;;27.77;;
11514;SDS011;5814;41.936;25.556;2022-12-29T14:49:31;30.97;;;27.80;;
11514;SDS011;5814;41.936;25.556;2022-12-29T14:52:05;47.87;;;30.13;;
11514;SDS011;5814;41.936;25.556;2022-12-29T14:54:40;43.47;;;30.13;;
11514;SDS011;5814;41.936;25.556;2022-12-29T14:57:02;55.07;;;33.97;;
11514;SDS011;5814;41.936;25.556;2022-12-29T14:59:28;124.93;;;82.20;;
11514;SDS011;5814;41.936;25.556;2022-12-29T15:01:55;65.57;;;49.33;;
11514;SDS011;5814;41.936;25.556;2022-12-29T15:04:27;103.43;;;68.60;;
11514;SDS011;5814;41.936;25.556;2022-12-29T15:06:53;100.90;;;70.37;;
11514;SDS011;5814;41.936;25.556;2022-12-29T15:09:24;112.87;;;76.03;;
11514;SDS011;5814;41.936;25.556;2022-12-29T15:11:55;95.90;;;66.63;;
11514;SDS011;5814;41.936;25.556;2022-12-29T15:14:28;78.10;;;54.47;;
11514;SDS011;5814;41.936;25.556;2022-12-29T15:16:54;93.70;;;65.00;;
11514;SDS011;5814;41.936;25.556;2022-12-29T15:19:22;92.47;;;61.70;;